sensor_id;sensor_type;location;lat;lon;timestamp;noise_LAeq;noise_LA_min;noise_LA_max;noise_LA01;noise_LA95
53702;Laerm;39594;52.194;9.886;2023-02-08T00:00:32;40.79;36.45;43.44;;
53702;Laerm;39594;52.194;9.886;2023-02-08T00:02:58;49.57;36.77;67.03;;
53702;Laerm;39594;52.194;9.886;2023-02-08T00:05:23;39.63;34.31;42.35;;
53702;Laerm;39594;52.194;9.886;2023-02-08T00:07:48;40.02;34.31;42.82;;
53702;Laerm;39594;52.194;9.886;2023-02-08T00:10:13;39.49;33.90;43.14;;
53702;Laerm;39594;52.194;9.886;2023-02-08T00:12:38;52.39;35.04;71.73;;
53702;Laerm;39594;52.194;9.886;2023-02-08T00:15:04;39.95;34.31;42.29;;
53702;Laerm;39594;52.194;9.886;2023-02-08T00:17:29;40.64;35.36;43.19;;
53702;Laerm;39594;52.194;9.886;2023-02-08T00:19:54;40.72;36.45;43.09;;
53702;Laerm;39594;52.194;9.886;2023-02-08T00:22:20;40.45;35.66;43.04;;
53702;Laerm;39594;52.194;9.886;2023-02-08T00:24:45;61.22;37.32;79.48;;
53702;Laerm;39594;52.194;9.886;2023-02-08T00:27:10;41.38;35.66;49.77;;
53702;Laerm;39594;52.194;9.886;2023-02-08T00:29:35;55.84;35.04;74.49;;
53702;Laerm;39594;52.194;9.886;2023-02-08T00:32:00;46.83;33.90;62.64;;
53702;Laerm;39594;52.194;9.886;2023-02-08T00:34:26;40.11;35.66;44.23;;
53702;Laerm;39594;52.194;9.886;2023-02-08T00:36:51;39.68;35.04;42.09;;
53702;Laerm;39594;52.194;9.886;2023-02-08T00:39:16;40.04;36.20;43.39;;
53702;Laerm;39594;52.194;9.886;2023-02-08T00:41:41;40.01;35.04;43.39;;
53702;Laerm;39594;52.194;9.886;2023-02-08T00:44:06;39.38;33.90;41.82;;
53702;Laerm;39594;52.194;9.886;2023-02-08T00:46:31;39.48;35.04;42.16;;
53702;Laerm;39594;52.194;9.886;2023-02-08T00:48:57;41.47;35.36;44.80;;
53702;Laerm;39594;52.194;9.886;2023-02-08T00:51:22;40.91;36.20;44.76;;
53702;Laerm;39594;52.194;9.886;2023-02-08T00:53:47;40.31;35.66;42.59;;
53702;Laerm;39594;52.194;9.886;2023-02-08T00:56:13;40.40;36.20;42.93;;
53702;Laerm;39594;52.194;9.886;2023-02-08T00:58:38;39.64;35.36;41.96;;
53702;Laerm;39594;52.194;9.886;2023-02-08T01:01:04;39.84;35.36;42.53;;
53702;Laerm;39594;52.194;9.886;2023-02-08T01:03:29;39.84;35.04;42.82;;
53702;Laerm;39594;52.194;9.886;2023-02-08T01:06:00;39.92;34.69;48.60;;
53702;Laerm;39594;52.194;9.886;2023-02-08T01:08:26;41.08;34.69;45.04;;
53702;Laerm;39594;52.194;9.886;2023-02-08T01:10:51;40.70;36.45;43.94;;
53702;Laerm;39594;52.194;9.886;2023-02-08T01:13:17;40.93;35.36;44.03;;
53702;Laerm;39594;52.194;9.886;2023-02-08T01:15:42;41.68;36.91;44.58;;
53702;Laerm;39594;52.194;9.886;2023-02-08T01:18:07;40.50;33.90;44.65;;
53702;Laerm;39594;52.194;9.886;2023-02-08T01:20:33;40.98;35.04;43.54;;
53702;Laerm;39594;52.194;9.886;2023-02-08T01:22:59;40.55;34.69;43.09;;
53702;Laerm;39594;52.194;9.886;2023-02-08T01:25:24;41.91;36.91;43.72;;
53702;Laerm;39594;52.194;9.886;2023-02-08T01:27:49;41.94;38.02;44.73;;
53702;Laerm;39594;52.194;9.886;2023-02-08T01:30:14;40.73;36.69;42.65;;
53702;Laerm;39594;52.194;9.886;2023-02-08T01:32:41;41.93;38.21;44.35;;
53702;Laerm;39594;52.194;9.886;2023-02-08T01:35:06;41.75;37.32;44.54;;
53702;Laerm;39594;52.194;9.886;2023-02-08T01:37:31;41.31;36.91;43.19;;
53702;Laerm;39594;52.194;9.886;2023-02-08T01:39:57;41.40;36.91;43.14;;
53702;Laerm;39594;52.194;9.886;2023-02-08T01:42:22;41.80;37.70;43.29;;
53702;Laerm;39594;52.194;9.886;2023-02-08T01:47:31;54.97;38.81;72.79;;
53702;Laerm;39594;52.194;9.886;2023-02-08T01:49:56;53.99;38.95;72.22;;
53702;Laerm;39594;52.194;9.886;2023-02-08T01:52:22;42.01;38.81;45.01;;
53702;Laerm;39594;52.194;9.886;2023-02-08T01:54:50;42.37;39.08;48.05;;
53702;Laerm;39594;52.194;9.886;2023-02-08T01:57:18;42.42;38.67;50.51;;
53702;Laerm;39594;52.194;9.886;2023-02-08T01:59:49;42.09;38.52;50.38;;
53702;Laerm;39594;52.194;9.886;2023-02-08T02:02:16;41.97;38.95;49.92;;
53702;Laerm;39594;52.194;9.886;2023-02-08T02:04:43;42.46;37.88;43.68;;
53702;Laerm;39594;52.194;9.886;2023-02-08T02:07:08;42.16;37.32;43.58;;
53702;Laerm;39594;52.194;9.886;2023-02-08T02:11:59;40.37;35.94;42.64;;
53702;Laerm;39594;52.194;9.886;2023-02-08T02:14:25;39.90;35.01;42.22;;
53702;Laerm;39594;52.194;9.886;2023-02-08T02:16:50;39.88;35.94;42.59;;
53702;Laerm;39594;52.194;9.886;2023-02-08T02:22:02;39.54;33.90;42.47;;
53702;Laerm;39594;52.194;9.886;2023-02-08T02:32:25;41.73;37.52;44.07;;
53702;Laerm;39594;52.194;9.886;2023-02-08T02:34:56;60.71;36.45;80.52;;
53702;Laerm;39594;52.194;9.886;2023-02-08T02:37:39;45.86;35.04;60.47;;
53702;Laerm;39594;52.194;9.886;2023-02-08T02:41:12;40.79;35.36;43.68;;
53702;Laerm;39594;52.194;9.886;2023-02-08T02:43:15;40.76;36.20;43.34;;
53702;Laerm;39594;52.194;9.886;2023-02-08T02:51:14;51.34;35.94;69.82;;
53702;Laerm;39594;52.194;9.886;2023-02-08T02:53:46;53.04;35.94;70.88;;
53702;Laerm;39594;52.194;9.886;2023-02-08T02:56:16;40.00;35.94;42.88;;
53702;Laerm;39594;52.194;9.886;2023-02-08T02:58:43;40.39;35.94;43.99;;
53702;Laerm;39594;52.194;9.886;2023-02-08T03:01:09;52.52;36.20;71.35;;
53702;Laerm;39594;52.194;9.886;2023-02-08T03:03:34;59.04;37.12;75.05;;
53702;Laerm;39594;52.194;9.886;2023-02-08T03:06:01;55.39;36.98;73.55;;
53702;Laerm;39594;52.194;9.886;2023-02-08T03:09:10;40.70;36.45;43.14;;
53702;Laerm;39594;52.194;9.886;2023-02-08T03:13:55;41.02;36.20;43.44;;
53702;Laerm;39594;52.194;9.886;2023-02-08T03:16:47;52.09;36.69;69.93;;
53702;Laerm;39594;52.194;9.886;2023-02-08T03:19:19;52.82;35.94;72.38;;
53702;Laerm;39594;52.194;9.886;2023-02-08T03:21:50;50.05;35.04;66.50;;
53702;Laerm;39594;52.194;9.886;2023-02-08T03:24:24;54.40;35.94;73.13;;
53702;Laerm;39594;52.194;9.886;2023-02-08T03:26:52;52.61;35.94;71.30;;
53702;Laerm;39594;52.194;9.886;2023-02-08T03:32:07;53.14;36.45;70.97;;
53702;Laerm;39594;52.194;9.886;2023-02-08T03:37:09;57.63;35.36;74.27;;
53702;Laerm;39594;52.194;9.886;2023-02-08T03:39:37;53.04;36.45;72.03;;
53702;Laerm;39594;52.194;9.886;2023-02-08T03:42:05;39.99;36.20;42.47;;
53702;Laerm;39594;52.194;9.886;2023-02-08T03:44:37;55.12;35.36;73.69;;
53702;Laerm;39594;52.194;9.886;2023-02-08T03:47:14;40.22;34.69;42.82;;
53702;Laerm;39594;52.194;9.886;2023-02-08T03:49:41;51.35;35.94;69.60;;
53702;Laerm;39594;52.194;9.886;2023-02-08T03:52:08;61.13;39.11;76.68;;
53702;Laerm;39594;52.194;9.886;2023-02-08T03:54:35;60.94;36.69;84.29;;
53702;Laerm;39594;52.194;9.886;2023-02-08T03:57:10;41.03;35.94;47.96;;
53702;Laerm;39594;52.194;9.886;2023-02-08T03:59:38;58.06;36.91;73.55;;
53702;Laerm;39594;52.194;9.886;2023-02-08T04:02:05;50.47;36.20;70.09;;
53702;Laerm;39594;52.194;9.886;2023-02-08T04:04:32;59.75;37.88;76.87;;
53702;Laerm;39594;52.194;9.886;2023-02-08T04:06:58;58.32;38.18;73.35;;
53702;Laerm;39594;52.194;9.886;2023-02-08T04:09:23;55.53;38.21;71.68;;
53702;Laerm;39594;52.194;9.886;2023-02-08T04:11:48;58.72;38.67;74.40;;
53702;Laerm;39594;52.194;9.886;2023-02-08T04:14:14;60.09;38.99;74.46;;
53702;Laerm;39594;52.194;9.886;2023-02-08T04:16:39;59.20;38.81;72.51;;
53702;Laerm;39594;52.194;9.886;2023-02-08T04:19:04;59.35;38.81;74.41;;
53702;Laerm;39594;52.194;9.886;2023-02-08T04:21:29;60.46;37.32;73.45;;
53702;Laerm;39594;52.194;9.886;2023-02-08T04:23:54;64.32;42.22;74.47;;
53702;Laerm;39594;52.194;9.886;2023-02-08T04:26:19;63.06;39.21;77.15;;
53702;Laerm;39594;52.194;9.886;2023-02-08T04:28:45;63.28;39.46;75.32;;
53702;Laerm;39594;52.194;9.886;2023-02-08T04:31:10;60.03;40.13;72.73;;
53702;Laerm;39594;52.194;9.886;2023-02-08T04:33:35;63.71;40.23;76.25;;
53702;Laerm;39594;52.194;9.886;2023-02-08T04:36:00;61.55;35.94;73.36;;
53702;Laerm;39594;52.194;9.886;2023-02-08T04:38:25;62.38;39.08;74.56;;
53702;Laerm;39594;52.194;9.886;2023-02-08T04:40:51;59.27;38.52;73.72;;
53702;Laerm;39594;52.194;9.886;2023-02-08T04:43:16;62.51;38.95;74.53;;
53702;Laerm;39594;52.194;9.886;2023-02-08T04:45:41;63.43;38.67;79.58;;
53702;Laerm;39594;52.194;9.886;2023-02-08T04:48:06;59.89;39.34;74.07;;
53702;Laerm;39594;52.194;9.886;2023-02-08T04:50:32;60.50;40.53;76.60;;
53702;Laerm;39594;52.194;9.886;2023-02-08T04:52:58;64.75;40.62;77.53;;
53702;Laerm;39594;52.194;9.886;2023-02-08T04:55:23;63.67;41.30;75.55;;
53702;Laerm;39594;52.194;9.886;2023-02-08T04:57:48;63.23;39.81;77.00;;
53702;Laerm;39594;52.194;9.886;2023-02-08T05:00:13;57.85;38.95;73.63;;
53702;Laerm;39594;52.194;9.886;2023-02-08T05:02:39;61.04;39.46;74.59;;
53702;Laerm;39594;52.194;9.886;2023-02-08T05:05:04;62.40;39.21;79.81;;
53702;Laerm;39594;52.194;9.886;2023-02-08T05:07:29;60.68;38.74;77.19;;
53702;Laerm;39594;52.194;9.886;2023-02-08T05:09:55;60.46;39.81;75.49;;
53702;Laerm;39594;52.194;9.886;2023-02-08T05:12:20;62.73;39.70;79.35;;
53702;Laerm;39594;52.194;9.886;2023-02-08T05:14:45;60.88;39.81;76.38;;
53702;Laerm;39594;52.194;9.886;2023-02-08T05:17:10;64.30;40.89;77.77;;
53702;Laerm;39594;52.194;9.886;2023-02-08T05:19:35;64.06;41.61;75.25;;
53702;Laerm;39594;52.194;9.886;2023-02-08T05:22:01;63.20;39.81;73.32;;
53702;Laerm;39594;52.194;9.886;2023-02-08T05:24:26;63.23;38.37;76.96;;
53702;Laerm;39594;52.194;9.886;2023-02-08T05:26:51;66.65;42.29;80.64;;
53702;Laerm;39594;52.194;9.886;2023-02-08T05:29:16;63.44;43.24;76.59;;
53702;Laerm;39594;52.194;9.886;2023-02-08T05:36:46;60.95;40.43;74.59;;
53702;Laerm;39594;52.194;9.886;2023-02-08T05:39:14;65.33;43.68;76.09;;
53702;Laerm;39594;52.194;9.886;2023-02-08T05:41:39;65.34;44.15;75.49;;
53702;Laerm;39594;52.194;9.886;2023-02-08T05:44:07;65.66;39.70;76.76;;
53702;Laerm;39594;52.194;9.886;2023-02-08T05:46:42;64.83;42.03;75.20;;
53702;Laerm;39594;52.194;9.886;2023-02-08T05:49:07;65.62;40.13;78.77;;
53702;Laerm;39594;52.194;9.886;2023-02-08T05:51:32;63.19;41.61;73.45;;
53702;Laerm;39594;52.194;9.886;2023-02-08T05:54:06;64.48;44.35;77.38;;
53702;Laerm;39594;52.194;9.886;2023-02-08T05:56:32;67.52;42.76;80.59;;
53702;Laerm;39594;52.194;9.886;2023-02-08T05:59:00;61.24;42.22;72.64;;
53702;Laerm;39594;52.194;9.886;2023-02-08T06:01:26;66.20;42.41;78.24;;
53702;Laerm;39594;52.194;9.886;2023-02-08T06:03:51;61.23;40.89;73.73;;
53702;Laerm;39594;52.194;9.886;2023-02-08T06:06:18;60.13;40.53;73.25;;
53702;Laerm;39594;52.194;9.886;2023-02-08T06:08:46;64.89;41.89;75.96;;
53702;Laerm;39594;52.194;9.886;2023-02-08T06:11:14;64.51;42.71;73.88;;
53702;Laerm;39594;52.194;9.886;2023-02-08T06:13:40;65.46;42.06;75.88;;
53702;Laerm;39594;52.194;9.886;2023-02-08T06:16:06;66.76;43.49;75.82;;
53702;Laerm;39594;52.194;9.886;2023-02-08T06:18:31;65.24;42.71;76.47;;
53702;Laerm;39594;52.194;9.886;2023-02-08T06:20:57;64.28;39.92;74.60;;
53702;Laerm;39594;52.194;9.886;2023-02-08T06:23:25;66.08;42.82;76.88;;
53702;Laerm;39594;52.194;9.886;2023-02-08T06:25:53;66.41;41.41;79.04;;
53702;Laerm;39594;52.194;9.886;2023-02-08T06:28:19;68.38;43.72;79.06;;
53702;Laerm;39594;52.194;9.886;2023-02-08T06:30:44;66.32;45.86;75.50;;
53702;Laerm;39594;52.194;9.886;2023-02-08T06:33:12;66.66;42.47;80.28;;
53702;Laerm;39594;52.194;9.886;2023-02-08T06:35:37;65.40;40.33;74.12;;
53702;Laerm;39594;52.194;9.886;2023-02-08T06:38:12;65.71;39.34;77.58;;
53702;Laerm;39594;52.194;9.886;2023-02-08T06:40:37;64.77;42.16;75.45;;
53702;Laerm;39594;52.194;9.886;2023-02-08T06:43:03;67.32;45.14;77.14;;
53702;Laerm;39594;52.194;9.886;2023-02-08T06:45:34;65.40;42.53;76.99;;
53702;Laerm;39594;52.194;9.886;2023-02-08T06:48:00;65.74;40.62;76.84;;
53702;Laerm;39594;52.194;9.886;2023-02-08T06:50:28;68.07;43.68;78.59;;
53702;Laerm;39594;52.194;9.886;2023-02-08T06:52:54;67.30;42.95;77.91;;
53702;Laerm;39594;52.194;9.886;2023-02-08T06:55:20;68.08;45.91;79.29;;
53702;Laerm;39594;52.194;9.886;2023-02-08T06:57:49;64.93;42.93;75.49;;
53702;Laerm;39594;52.194;9.886;2023-02-08T07:00:17;66.96;44.23;79.49;;
53702;Laerm;39594;52.194;9.886;2023-02-08T07:02:48;64.42;42.29;74.87;;
53702;Laerm;39594;52.194;9.886;2023-02-08T07:05:24;66.53;41.38;81.20;;
53702;Laerm;39594;52.194;9.886;2023-02-08T07:07:50;65.84;41.53;79.75;;
53702;Laerm;39594;52.194;9.886;2023-02-08T07:10:15;65.89;42.22;79.66;;
53702;Laerm;39594;52.194;9.886;2023-02-08T07:12:43;66.55;40.23;80.20;;
53702;Laerm;39594;52.194;9.886;2023-02-08T07:15:09;66.02;42.76;75.89;;
53702;Laerm;39594;52.194;9.886;2023-02-08T07:17:37;66.78;42.41;79.73;;
53702;Laerm;39594;52.194;9.886;2023-02-08T07:20:08;64.70;41.30;75.63;;
53702;Laerm;39594;52.194;9.886;2023-02-08T07:22:35;64.06;38.95;82.39;;
53702;Laerm;39594;52.194;9.886;2023-02-08T07:25:01;67.69;39.70;81.78;;
53702;Laerm;39594;52.194;9.886;2023-02-08T07:27:26;62.35;39.46;74.51;;
53702;Laerm;39594;52.194;9.886;2023-02-08T07:32:37;63.31;40.33;77.03;;
53702;Laerm;39594;52.194;9.886;2023-02-08T07:35:03;64.43;40.71;75.02;;
53702;Laerm;39594;52.194;9.886;2023-02-08T07:37:28;66.86;44.11;81.60;;
53702;Laerm;39594;52.194;9.886;2023-02-08T07:39:53;65.50;42.22;78.30;;
53702;Laerm;39594;52.194;9.886;2023-02-08T07:42:19;62.78;41.30;76.36;;
53702;Laerm;39594;52.194;9.886;2023-02-08T07:44:47;60.39;40.62;73.90;;
53702;Laerm;39594;52.194;9.886;2023-02-08T07:47:13;64.45;43.39;75.47;;
53702;Laerm;39594;52.194;9.886;2023-02-08T07:49:38;68.46;39.89;84.45;;
53702;Laerm;39594;52.194;9.886;2023-02-08T07:52:12;66.41;42.98;80.01;;
53702;Laerm;39594;52.194;9.886;2023-02-08T07:54:37;63.09;40.62;75.29;;
53702;Laerm;39594;52.194;9.886;2023-02-08T07:57:02;63.18;40.62;74.74;;
53702;Laerm;39594;52.194;9.886;2023-02-08T07:59:35;65.77;42.03;80.67;;
53702;Laerm;39594;52.194;9.886;2023-02-08T08:02:01;66.21;40.98;82.01;;
53702;Laerm;39594;52.194;9.886;2023-02-08T08:04:39;61.77;40.62;74.67;;
53702;Laerm;39594;52.194;9.886;2023-02-08T08:07:04;66.58;42.98;81.15;;
53702;Laerm;39594;52.194;9.886;2023-02-08T08:09:29;61.94;39.46;75.52;;
53702;Laerm;39594;52.194;9.886;2023-02-08T08:11:54;66.69;41.82;81.67;;
53702;Laerm;39594;52.194;9.886;2023-02-08T08:14:20;62.93;40.62;75.93;;
53702;Laerm;39594;52.194;9.886;2023-02-08T08:16:45;65.93;41.14;79.65;;
53702;Laerm;39594;52.194;9.886;2023-02-08T08:19:10;62.78;40.89;76.21;;
53702;Laerm;39594;52.194;9.886;2023-02-08T08:21:38;64.61;39.46;83.91;;
53702;Laerm;39594;52.194;9.886;2023-02-08T08:24:04;60.42;39.58;81.53;;
53702;Laerm;39594;52.194;9.886;2023-02-08T08:26:30;60.75;39.70;76.29;;
53702;Laerm;39594;52.194;9.886;2023-02-08T08:28:58;63.30;39.21;78.80;;
53702;Laerm;39594;52.194;9.886;2023-02-08T08:31:35;63.45;40.62;76.66;;
53702;Laerm;39594;52.194;9.886;2023-02-08T08:34:02;65.44;39.34;79.73;;
53702;Laerm;39594;52.194;9.886;2023-02-08T08:36:27;66.08;40.33;77.94;;
53702;Laerm;39594;52.194;9.886;2023-02-08T08:38:55;67.14;42.59;79.74;;
53702;Laerm;39594;52.194;9.886;2023-02-08T08:41:32;64.11;41.68;74.53;;
53702;Laerm;39594;52.194;9.886;2023-02-08T08:44:13;63.61;39.21;74.69;;
53702;Laerm;39594;52.194;9.886;2023-02-08T08:46:38;65.96;41.82;82.15;;
53702;Laerm;39594;52.194;9.886;2023-02-08T08:49:04;64.60;42.29;80.54;;
53702;Laerm;39594;52.194;9.886;2023-02-08T08:51:29;59.77;40.13;71.77;;
53702;Laerm;39594;52.194;9.886;2023-02-08T08:54:02;62.59;39.08;78.35;;
53702;Laerm;39594;52.194;9.886;2023-02-08T08:56:28;63.93;39.08;77.32;;
53702;Laerm;39594;52.194;9.886;2023-02-08T08:59:20;63.56;41.06;76.46;;
53702;Laerm;39594;52.194;9.886;2023-02-08T09:01:46;64.59;39.92;79.74;;
53702;Laerm;39594;52.194;9.886;2023-02-08T09:04:11;63.64;39.92;78.29;;
53702;Laerm;39594;52.194;9.886;2023-02-08T09:06:36;62.63;40.53;73.63;;
53702;Laerm;39594;52.194;9.886;2023-02-08T09:09:02;67.75;37.70;83.49;;
53702;Laerm;39594;52.194;9.886;2023-02-08T09:11:27;63.48;41.14;78.44;;
53702;Laerm;39594;52.194;9.886;2023-02-08T09:13:57;66.58;40.98;81.28;;
53702;Laerm;39594;52.194;9.886;2023-02-08T09:16:25;67.30;42.29;80.16;;
53702;Laerm;39594;52.194;9.886;2023-02-08T09:18:53;63.13;39.81;82.63;;
53702;Laerm;39594;52.194;9.886;2023-02-08T09:21:20;61.64;39.34;76.98;;
53702;Laerm;39594;52.194;9.886;2023-02-08T09:23:46;64.74;36.91;83.49;;
53702;Laerm;39594;52.194;9.886;2023-02-08T09:26:27;60.21;39.08;73.43;;
53702;Laerm;39594;52.194;9.886;2023-02-08T09:28:55;65.21;40.03;79.90;;
53702;Laerm;39594;52.194;9.886;2023-02-08T09:33:50;63.66;40.03;78.53;;
53702;Laerm;39594;52.194;9.886;2023-02-08T09:36:18;60.41;40.33;79.88;;
53702;Laerm;39594;52.194;9.886;2023-02-08T09:38:44;62.00;40.33;80.54;;
53702;Laerm;39594;52.194;9.886;2023-02-08T09:47:02;65.75;42.29;79.93;;
53702;Laerm;39594;52.194;9.886;2023-02-08T09:49:38;64.87;40.71;79.62;;
53702;Laerm;39594;52.194;9.886;2023-02-08T09:52:09;61.52;40.13;79.94;;
53702;Laerm;39594;52.194;9.886;2023-02-08T09:54:40;63.24;39.34;76.27;;
53702;Laerm;39594;52.194;9.886;2023-02-08T09:57:09;63.81;37.52;78.77;;
53702;Laerm;39594;52.194;9.886;2023-02-08T09:59:35;61.40;41.53;72.84;;
53702;Laerm;39594;52.194;9.886;2023-02-08T10:02:20;63.24;42.22;77.10;;
53702;Laerm;39594;52.194;9.886;2023-02-08T10:07:25;60.03;39.81;74.59;;
53702;Laerm;39594;52.194;9.886;2023-02-08T10:09:51;64.48;40.53;86.14;;
53702;Laerm;39594;52.194;9.886;2023-02-08T10:15:02;63.11;37.88;79.85;;
53702;Laerm;39594;52.194;9.886;2023-02-08T10:17:36;58.68;38.81;71.93;;
53702;Laerm;39594;52.194;9.886;2023-02-08T10:33:58;64.00;45.42;73.38;;
53702;Laerm;39594;52.194;9.886;2023-02-08T10:36:48;61.95;40.98;72.56;;
53702;Laerm;39594;52.194;9.886;2023-02-08T10:39:32;63.34;41.68;74.06;;
53702;Laerm;39594;52.194;9.886;2023-02-08T10:41:59;65.23;41.89;77.92;;
53702;Laerm;39594;52.194;9.886;2023-02-08T10:44:45;67.75;37.88;83.55;;
53702;Laerm;39594;52.194;9.886;2023-02-08T10:49:50;62.24;42.09;73.61;;
53702;Laerm;39594;52.194;9.886;2023-02-08T10:52:18;61.46;41.22;78.88;;
53702;Laerm;39594;52.194;9.886;2023-02-08T10:54:53;62.83;40.03;77.98;;
53702;Laerm;39594;52.194;9.886;2023-02-08T10:57:31;62.00;39.58;74.49;;
53702;Laerm;39594;52.194;9.886;2023-02-08T11:02:54;62.62;42.29;76.07;;
53702;Laerm;39594;52.194;9.886;2023-02-08T11:05:34;62.64;39.34;75.00;;
53702;Laerm;39594;52.194;9.886;2023-02-08T11:08:10;59.15;41.68;73.09;;
53702;Laerm;39594;52.194;9.886;2023-02-08T11:10:36;65.70;44.03;80.16;;
53702;Laerm;39594;52.194;9.886;2023-02-08T11:13:14;61.43;41.38;72.82;;
53702;Laerm;39594;52.194;9.886;2023-02-08T11:18:05;69.17;40.03;84.02;;
53702;Laerm;39594;52.194;9.886;2023-02-08T11:20:33;66.22;42.35;80.36;;
53702;Laerm;39594;52.194;9.886;2023-02-08T11:23:00;60.23;41.48;71.77;;
53702;Laerm;39594;52.194;9.886;2023-02-08T11:25:30;62.38;37.70;72.47;;
53702;Laerm;39594;52.194;9.886;2023-02-08T11:27:56;61.99;38.67;73.69;;
53702;Laerm;39594;52.194;9.886;2023-02-08T11:30:27;61.71;42.71;71.49;;
53702;Laerm;39594;52.194;9.886;2023-02-08T11:35:42;66.95;40.43;80.08;;
53702;Laerm;39594;52.194;9.886;2023-02-08T11:38:16;63.75;41.61;79.52;;
53702;Laerm;39594;52.194;9.886;2023-02-08T11:40:43;64.63;41.30;77.85;;
53702;Laerm;39594;52.194;9.886;2023-02-08T11:43:18;66.01;41.75;83.04;;
53702;Laerm;39594;52.194;9.886;2023-02-08T11:45:46;65.20;42.35;79.21;;
53702;Laerm;39594;52.194;9.886;2023-02-08T11:48:54;67.29;43.72;78.88;;
53702;Laerm;39594;52.194;9.886;2023-02-08T11:51:01;62.43;40.62;76.73;;
53702;Laerm;39594;52.194;9.886;2023-02-08T11:53:36;61.96;40.13;76.65;;
53702;Laerm;39594;52.194;9.886;2023-02-08T11:56:20;61.61;40.62;72.19;;
53702;Laerm;39594;52.194;9.886;2023-02-08T11:59:31;62.23;37.52;73.33;;
53702;Laerm;39594;52.194;9.886;2023-02-08T12:01:38;63.85;40.33;77.59;;
53702;Laerm;39594;52.194;9.886;2023-02-08T12:04:15;65.12;41.14;77.59;;
53702;Laerm;39594;52.194;9.886;2023-02-08T12:09:37;62.41;38.81;71.84;;
53702;Laerm;39594;52.194;9.886;2023-02-08T12:22:50;64.14;42.65;77.30;;
53702;Laerm;39594;52.194;9.886;2023-02-08T12:25:23;60.90;40.62;71.67;;
53702;Laerm;39594;52.194;9.886;2023-02-08T12:33:06;63.76;41.06;74.37;;
53702;Laerm;39594;52.194;9.886;2023-02-08T12:38:27;65.19;41.38;77.36;;
53702;Laerm;39594;52.194;9.886;2023-02-08T12:41:09;63.63;40.13;81.13;;
53702;Laerm;39594;52.194;9.886;2023-02-08T12:48:58;62.75;39.46;80.01;;
53702;Laerm;39594;52.194;9.886;2023-02-08T12:51:38;66.83;39.08;82.87;;
53702;Laerm;39594;52.194;9.886;2023-02-08T12:54:17;65.70;40.03;80.05;;
53702;Laerm;39594;52.194;9.886;2023-02-08T12:56:48;64.44;41.06;76.18;;
53702;Laerm;39594;52.194;9.886;2023-02-08T12:59:32;65.62;39.81;81.08;;
53702;Laerm;39594;52.194;9.886;2023-02-08T13:02:08;63.72;43.29;84.05;;
53702;Laerm;39594;52.194;9.886;2023-02-08T13:04:40;62.79;39.70;73.97;;
53702;Laerm;39594;52.194;9.886;2023-02-08T13:07:10;64.93;38.37;75.16;;
53702;Laerm;39594;52.194;9.886;2023-02-08T13:09:39;62.41;40.33;73.93;;
53702;Laerm;39594;52.194;9.886;2023-02-08T13:12:16;66.34;39.58;79.91;;
53702;Laerm;39594;52.194;9.886;2023-02-08T13:14:47;64.94;40.79;79.30;;
53702;Laerm;39594;52.194;9.886;2023-02-08T13:17:25;64.13;40.43;78.31;;
53702;Laerm;39594;52.194;9.886;2023-02-08T13:19:56;65.79;41.96;77.69;;
53702;Laerm;39594;52.194;9.886;2023-02-08T13:22:22;67.39;40.53;78.47;;
53702;Laerm;39594;52.194;9.886;2023-02-08T13:24:48;61.54;41.61;74.57;;
53702;Laerm;39594;52.194;9.886;2023-02-08T13:27:16;61.83;38.37;75.65;;
53702;Laerm;39594;52.194;9.886;2023-02-08T13:29:43;61.92;40.33;76.90;;
53702;Laerm;39594;52.194;9.886;2023-02-08T13:34:43;64.69;40.71;80.10;;
53702;Laerm;39594;52.194;9.886;2023-02-08T13:37:18;65.27;39.08;80.42;;
53702;Laerm;39594;52.194;9.886;2023-02-08T13:39:46;64.13;41.38;78.79;;
53702;Laerm;39594;52.194;9.886;2023-02-08T13:42:24;64.51;40.53;80.75;;
53702;Laerm;39594;52.194;9.886;2023-02-08T13:44:51;62.94;39.81;77.56;;
53702;Laerm;39594;52.194;9.886;2023-02-08T13:47:25;66.65;43.58;84.12;;
53702;Laerm;39594;52.194;9.886;2023-02-08T13:49:53;66.61;44.83;84.65;;
53702;Laerm;39594;52.194;9.886;2023-02-08T13:57:53;59.26;38.67;71.49;;
53702;Laerm;39594;52.194;9.886;2023-02-08T14:02:56;62.26;39.81;73.76;;
53702;Laerm;39594;52.194;9.886;2023-02-08T14:05:40;62.75;40.98;80.67;;
53702;Laerm;39594;52.194;9.886;2023-02-08T14:08:10;64.89;40.23;80.64;;
53702;Laerm;39594;52.194;9.886;2023-02-08T14:10:41;65.24;41.53;77.15;;
53702;Laerm;39594;52.194;9.886;2023-02-08T14:15:44;64.15;43.81;77.30;;
53702;Laerm;39594;52.194;9.886;2023-02-08T14:18:23;64.58;41.75;73.61;;
53702;Laerm;39594;52.194;9.886;2023-02-08T14:20:58;63.18;41.53;72.81;;
53702;Laerm;39594;52.194;9.886;2023-02-08T14:23:25;64.51;43.54;77.25;;
53702;Laerm;39594;52.194;9.886;2023-02-08T14:25:55;66.04;43.44;76.37;;
53702;Laerm;39594;52.194;9.886;2023-02-08T14:31:00;63.49;41.14;75.70;;
53702;Laerm;39594;52.194;9.886;2023-02-08T14:33:29;61.59;40.03;73.47;;
53702;Laerm;39594;52.194;9.886;2023-02-08T14:35:57;63.54;41.68;74.69;;
53702;Laerm;39594;52.194;9.886;2023-02-08T14:45:42;63.45;42.98;73.83;;
53702;Laerm;39594;52.194;9.886;2023-02-08T14:50:49;65.90;43.29;78.99;;
53702;Laerm;39594;52.194;9.886;2023-02-08T14:53:16;65.37;43.58;73.68;;
53702;Laerm;39594;52.194;9.886;2023-02-08T14:55:44;67.18;44.73;86.97;;
53702;Laerm;39594;52.194;9.886;2023-02-08T14:58:20;64.74;40.80;74.64;;
53702;Laerm;39594;52.194;9.886;2023-02-08T15:00:46;62.56;39.58;72.79;;
53702;Laerm;39594;52.194;9.886;2023-02-08T15:03:15;64.61;43.24;76.78;;
53702;Laerm;39594;52.194;9.886;2023-02-08T15:05:44;66.22;45.48;80.59;;
53702;Laerm;39594;52.194;9.886;2023-02-08T15:08:18;64.15;43.09;75.13;;
53702;Laerm;39594;52.194;9.886;2023-02-08T15:10:44;63.81;41.38;75.36;;
53702;Laerm;39594;52.194;9.886;2023-02-08T15:13:19;66.89;42.98;79.53;;
53702;Laerm;39594;52.194;9.886;2023-02-08T15:15:45;64.22;43.29;76.11;;
53702;Laerm;39594;52.194;9.886;2023-02-08T15:18:15;63.44;41.55;74.55;;
53702;Laerm;39594;52.194;9.886;2023-02-08T15:20:42;65.95;39.92;78.17;;
53702;Laerm;39594;52.194;9.886;2023-02-08T15:23:19;64.18;42.88;76.84;;
53702;Laerm;39594;52.194;9.886;2023-02-08T15:25:53;63.49;42.47;74.77;;
53702;Laerm;39594;52.194;9.886;2023-02-08T15:28:20;65.39;44.19;74.63;;
53702;Laerm;39594;52.194;9.886;2023-02-08T15:33:20;65.72;45.01;77.47;;
53702;Laerm;39594;52.194;9.886;2023-02-08T15:35:53;62.42;39.58;73.03;;
53702;Laerm;39594;52.194;9.886;2023-02-08T15:38:20;65.05;42.47;76.16;;
53702;Laerm;39594;52.194;9.886;2023-02-08T15:40:58;63.36;44.47;73.74;;
53702;Laerm;39594;52.194;9.886;2023-02-08T15:43:24;64.69;43.14;80.33;;
53702;Laerm;39594;52.194;9.886;2023-02-08T15:45:56;64.37;41.75;72.86;;
53702;Laerm;39594;52.194;9.886;2023-02-08T15:48:25;65.32;42.29;74.16;;
53702;Laerm;39594;52.194;9.886;2023-02-08T15:50:54;62.63;41.46;72.09;;
53702;Laerm;39594;52.194;9.886;2023-02-08T15:53:20;64.06;42.47;74.53;;
53702;Laerm;39594;52.194;9.886;2023-02-08T15:55:49;65.14;41.46;74.38;;
53702;Laerm;39594;52.194;9.886;2023-02-08T16:00:46;66.52;43.58;81.88;;
53702;Laerm;39594;52.194;9.886;2023-02-08T16:03:16;66.77;44.27;79.34;;
53702;Laerm;39594;52.194;9.886;2023-02-08T16:05:43;64.16;40.89;76.65;;